Time;durP1;ratioP1;P1;durP2;ratioP2;P2;SDS_P1;SDS_P2;PMS_P1;PMS_P2;Temp;Humidity;BMP_temperature;BMP_pressure;BME280_temperature;BME280_humidity;BME280_pressure;Samples;Min_cycle;Max_cycle;Signal;HPM_P1;HPM_P2
2021/07/24 00:00:44;;;;;;;10.30;9.10;;;;;;;;;;4916772;29;20439;-75
2021/07/24 00:03:11;;;;;;;11.30;8.53;;;;;;;;;;4920218;29;20821;-75
2021/07/24 00:05:38;;;;;;;8.47;7.57;;;;;;;;;;4933533;29;20446;-75
2021/07/24 00:08:06;;;;;;;8.93;8.03;;;;;;;;;;4933027;29;20462;-75
2021/07/24 00:10:33;;;;;;;8.13;7.40;;;;;;;;;;4929398;29;20465;-75
2021/07/24 00:13:00;;;;;;;11.50;7.83;;;;;;;;;;4935316;29;20815;-75
2021/07/24 00:15:27;;;;;;;10.60;8.30;;;;;;;;;;4931299;29;20478;-74
2021/07/24 00:17:55;;;;;;;10.10;8.40;;;;;;;;;;4931271;29;20482;-74
2021/07/24 00:20:23;;;;;;;10.00;8.50;;;;;;;;;;4931573;29;20455;-74
2021/07/24 00:22:50;;;;;;;8.77;7.70;;;;;;;;;;4929034;29;20982;-75
2021/07/24 00:25:17;;;;;;;9.07;8.10;;;;;;;;;;4923679;29;20470;-75
2021/07/24 00:27:44;;;;;;;10.93;8.73;;;;;;;;;;4932396;29;20484;-74
2021/07/24 00:30:12;;;;;;;9.30;7.77;;;;;;;;;;4935493;29;20442;-75
2021/07/24 00:32:39;;;;;;;9.10;8.13;;;;;;;;;;4937557;28;20470;-74
2021/07/24 00:35:09;;;;;;;8.60;7.70;;;;;;;;;;4932234;29;20803;-75
2021/07/24 00:37:36;;;;;;;9.53;7.97;;;;;;;;;;4934730;29;20466;-74
2021/07/24 00:40:03;;;;;;;9.63;8.57;;;;;;;;;;4930951;29;21022;-74
2021/07/24 00:42:32;;;;;;;10.83;8.60;;;;;;;;;;4933777;29;20948;-75
2021/07/24 00:45:01;;;;;;;9.87;8.87;;;;;;;;;;4940724;28;20966;-75
2021/07/24 00:47:30;;;;;;;10.10;8.90;;;;;;;;;;4915439;29;20466;-75
2021/07/24 00:49:58;;;;;;;8.93;8.03;;;;;;;;;;4918033;29;20436;-75
2021/07/24 00:52:27;;;;;;;9.23;8.03;;;;;;;;;;4923895;29;20450;-75
2021/07/24 00:54:54;;;;;;;10.87;9.57;;;;;;;;;;4934170;29;20442;-75
2021/07/24 00:57:22;;;;;;;9.20;7.70;;;;;;;;;;4931224;29;21196;-74
2021/07/24 00:59:49;;;;;;;9.07;8.27;;;;;;;;;;4932851;29;21005;-75
2021/07/24 01:02:16;;;;;;;9.37;8.37;;;;;;;;;;4934836;29;20435;-75
2021/07/24 01:04:43;;;;;;;9.47;8.30;;;;;;;;;;4933555;29;20470;-75
2021/07/24 01:07:10;;;;;;;10.00;8.37;;;;;;;;;;4940425;29;20818;-75
2021/07/24 01:09:39;;;;;;;8.97;8.10;;;;;;;;;;4940625;28;20865;-74
2021/07/24 01:12:07;;;;;;;8.40;7.60;;;;;;;;;;4935618;29;20447;-75
2021/07/24 01:14:34;;;;;;;9.50;7.60;;;;;;;;;;4936699;29;20929;-75
2021/07/24 01:17:01;;;;;;;9.20;8.00;;;;;;;;;;4929782;29;20465;-75
2021/07/24 01:19:29;;;;;;;8.77;7.90;;;;;;;;;;4932484;29;20999;-75
2021/07/24 01:21:58;;;;;;;9.60;8.60;;;;;;;;;;4931925;29;20470;-75
2021/07/24 01:24:25;;;;;;;9.50;8.20;;;;;;;;;;4930787;29;20856;-75
2021/07/24 01:26:52;;;;;;;9.90;8.73;;;;;;;;;;4934247;29;20449;-75
2021/07/24 01:29:21;;;;;;;10.80;9.00;;;;;;;;;;4932044;29;20501;-74
2021/07/24 01:31:48;;;;;;;11.97;8.87;;;;;;;;;;4927793;29;20489;-74
2021/07/24 01:34:15;;;;;;;9.77;8.77;;;;;;;;;;4915561;29;20424;-75
2021/07/24 01:36:42;;;;;;;11.17;9.23;;;;;;;;;;4930191;29;20469;-74
2021/07/24 01:39:11;;;;;;;9.80;8.83;;;;;;;;;;4929055;29;20489;-76
2021/07/24 01:41:43;;;;;;;9.40;8.47;;;;;;;;;;4917131;29;20450;-75
2021/07/24 01:44:10;;;;;;;10.40;8.80;;;;;;;;;;4928692;28;20941;-75
2021/07/24 01:46:38;;;;;;;10.53;8.60;;;;;;;;;;4929083;29;20964;-75
2021/07/24 01:49:11;;;;;;;12.70;9.70;;;;;;;;;;4932316;29;20487;-75
2021/07/24 01:54:28;;;;;;;11.43;10.33;;;;;;;;;;4932580;29;20501;-75
2021/07/24 01:56:57;;;;;;;11.40;9.50;;;;;;;;;;4926271;29;20466;-76
2021/07/24 01:59:28;;;;;;;11.23;9.90;;;;;;;;;;4921973;29;20498;-76
2021/07/24 02:01:56;;;;;;;10.67;9.57;;;;;;;;;;4931560;29;20456;-74
2021/07/24 02:04:25;;;;;;;11.00;9.90;;;;;;;;;;4919106;29;20474;-74
2021/07/24 02:06:52;;;;;;;10.80;9.50;;;;;;;;;;4914394;29;20451;-75
2021/07/24 02:09:19;;;;;;;11.53;9.80;;;;;;;;;;4916760;29;20727;-74
2021/07/24 02:11:48;;;;;;;12.60;9.90;;;;;;;;;;4932412;28;20461;-75
2021/07/24 02:14:15;;;;;;;11.93;10.23;;;;;;;;;;4951200;28;20424;-75
2021/07/24 02:16:42;;;;;;;9.80;8.80;;;;;;;;;;4927953;29;20458;-75
2021/07/24 02:19:11;;;;;;;12.73;9.27;;;;;;;;;;4931852;29;20492;-75
2021/07/24 02:21:38;;;;;;;10.73;9.50;;;;;;;;;;4921119;29;20470;-75
2021/07/24 02:24:06;;;;;;;10.57;9.50;;;;;;;;;;4914018;29;20451;-74
2021/07/24 02:26:33;;;;;;;12.17;9.47;;;;;;;;;;4926578;29;20470;-75
2021/07/24 02:29:01;;;;;;;11.13;9.87;;;;;;;;;;4932201;29;20504;-75
2021/07/24 02:31:28;;;;;;;10.83;9.53;;;;;;;;;;4930639;29;20474;-75
2021/07/24 02:33:59;;;;;;;13.73;9.83;;;;;;;;;;4928720;29;20475;-75
2021/07/24 02:36:26;;;;;;;11.73;10.40;;;;;;;;;;4926961;29;20467;-75
2021/07/24 02:38:53;;;;;;;11.17;10.07;;;;;;;;;;4928103;29;20838;-75
2021/07/24 02:41:20;;;;;;;13.43;10.20;;;;;;;;;;4930519;29;20473;-75
2021/07/24 02:43:47;;;;;;;10.73;9.60;;;;;;;;;;4934223;29;20795;-75
2021/07/24 02:46:19;;;;;;;14.77;9.90;;;;;;;;;;4933788;29;20506;-75
2021/07/24 02:48:46;;;;;;;12.33;10.83;;;;;;;;;;4935237;29;20569;-75
2021/07/24 02:51:13;;;;;;;11.83;10.00;;;;;;;;;;4935154;29;20521;-75
2021/07/24 02:53:40;;;;;;;11.40;10.20;;;;;;;;;;4928473;29;20962;-75
2021/07/24 02:56:07;;;;;;;15.47;11.40;;;;;;;;;;4931650;29;20457;-75
2021/07/24 02:58:34;;;;;;;13.90;9.67;;;;;;;;;;4933123;29;20578;-75
2021/07/24 03:01:07;;;;;;;12.77;10.63;;;;;;;;;;4934637;29;20815;-74
2021/07/24 03:03:35;;;;;;;11.63;10.17;;;;;;;;;;4920208;29;20951;-75
2021/07/24 03:06:02;;;;;;;13.50;10.40;;;;;;;;;;4945884;29;20967;-75
2021/07/24 03:08:29;;;;;;;14.20;10.20;;;;;;;;;;4921587;29;20991;-74
2021/07/24 03:10:57;;;;;;;11.73;10.40;;;;;;;;;;4919876;29;20417;-75
2021/07/24 03:13:24;;;;;;;12.20;10.83;;;;;;;;;;4933443;29;20462;-76
2021/07/24 03:15:51;;;;;;;10.90;9.80;;;;;;;;;;4934645;29;20442;-75
2021/07/24 03:18:18;;;;;;;11.20;10.10;;;;;;;;;;4928063;29;20574;-76
2021/07/24 03:20:47;;;;;;;11.13;9.60;;;;;;;;;;4904070;29;20521;-74
2021/07/24 03:23:14;;;;;;;10.30;9.30;;;;;;;;;;4917413;29;20952;-76
2021/07/24 03:25:42;;;;;;;12.60;9.33;;;;;;;;;;4924337;29;20474;-76
2021/07/24 03:28:09;;;;;;;12.50;9.87;;;;;;;;;;4936118;29;20521;-74
2021/07/24 03:30:38;;;;;;;12.73;11.33;;;;;;;;;;4934346;29;20438;-74
2021/07/24 03:33:05;;;;;;;10.90;9.80;;;;;;;;;;4931354;29;20536;-74
2021/07/24 03:35:34;;;;;;;10.63;9.30;;;;;;;;;;4934352;29;20471;-75
2021/07/24 03:38:04;;;;;;;11.57;10.40;;;;;;;;;;4934558;29;20480;-75
2021/07/24 03:40:31;;;;;;;11.80;10.60;;;;;;;;;;4928429;29;20494;-75
2021/07/24 03:42:59;;;;;;;10.97;9.83;;;;;;;;;;4942499;28;20815;-74
2021/07/24 03:45:26;;;;;;;12.30;10.63;;;;;;;;;;4915732;29;20935;-74
2021/07/24 03:47:53;;;;;;;11.70;10.50;;;;;;;;;;4929673;29;20482;-75
2021/07/24 03:50:20;;;;;;;14.30;11.20;;;;;;;;;;4936021;29;20453;-76
2021/07/24 03:52:47;;;;;;;13.37;9.97;;;;;;;;;;4931592;29;20488;-75
2021/07/24 03:55:16;;;;;;;12.23;10.97;;;;;;;;;;4934250;29;20472;-75
2021/07/24 03:57:43;;;;;;;12.03;10.67;;;;;;;;;;4945112;28;20473;-75
2021/07/24 04:00:12;;;;;;;13.10;10.70;;;;;;;;;;4932470;29;20481;-75
2021/07/24 04:02:42;;;;;;;12.10;10.73;;;;;;;;;;4934873;29;20460;-75
2021/07/24 04:05:09;;;;;;;11.93;10.73;;;;;;;;;;4919821;29;21168;-76
2021/07/24 04:07:37;;;;;;;12.33;11.00;;;;;;;;;;4912659;29;20470;-75
2021/07/24 04:10:05;;;;;;;12.30;11.10;;;;;;;;;;4917007;29;20474;-74
2021/07/24 04:12:34;;;;;;;13.23;11.57;;;;;;;;;;4924986;29;20476;-74
2021/07/24 04:15:01;;;;;;;11.60;10.43;;;;;;;;;;4933560;29;20819;-75
2021/07/24 04:17:28;;;;;;;12.97;11.17;;;;;;;;;;4932383;29;20482;-74
2021/07/24 04:19:56;;;;;;;12.60;11.30;;;;;;;;;;4916288;29;20486;-76
2021/07/24 04:22:23;;;;;;;12.37;11.00;;;;;;;;;;4899358;29;20459;-76
2021/07/24 04:24:51;;;;;;;14.43;11.50;;;;;;;;;;4919353;29;20479;-76
2021/07/24 04:27:18;;;;;;;12.63;10.70;;;;;;;;;;4932588;29;20482;-78
2021/07/24 04:29:46;;;;;;;11.37;10.03;;;;;;;;;;4927748;29;20436;-76
2021/07/24 04:32:13;;;;;;;13.57;10.73;;;;;;;;;;4934409;29;20924;-76
2021/07/24 04:34:40;;;;;;;13.43;12.03;;;;;;;;;;4933349;29;20469;-76
2021/07/24 04:37:08;;;;;;;12.20;10.87;;;;;;;;;;4934976;29;20461;-76
2021/07/24 04:39:35;;;;;;;11.93;10.73;;;;;;;;;;4932870;29;20840;-76
2021/07/24 04:42:02;;;;;;;12.07;10.87;;;;;;;;;;4928277;29;20455;-76
2021/07/24 04:44:29;;;;;;;11.80;10.60;;;;;;;;;;4932598;29;20455;-76
2021/07/24 04:46:57;;;;;;;12.60;10.30;;;;;;;;;;4920615;29;20478;-76
2021/07/24 04:49:25;;;;;;;12.03;10.73;;;;;;;;;;4916122;29;20646;-76
2021/07/24 04:51:52;;;;;;;12.07;10.70;;;;;;;;;;4918750;29;20446;-77
2021/07/24 04:54:19;;;;;;;12.20;10.87;;;;;;;;;;4934753;29;20980;-76
2021/07/24 04:56:47;;;;;;;11.73;10.53;;;;;;;;;;4937009;29;20936;-76
2021/07/24 04:59:14;;;;;;;11.37;10.17;;;;;;;;;;4923805;29;20495;-75
2021/07/24 05:01:41;;;;;;;11.40;10.23;;;;;;;;;;4917986;29;20494;-76
2021/07/24 05:04:10;;;;;;;13.30;11.00;;;;;;;;;;4925811;29;20466;-75
2021/07/24 05:06:37;;;;;;;13.47;10.53;;;;;;;;;;4933173;29;20438;-76
2021/07/24 05:09:06;;;;;;;15.33;11.43;;;;;;;;;;4932606;29;21019;-76
2021/07/24 05:11:34;;;;;;;10.80;9.53;;;;;;;;;;4918001;29;20493;-76
2021/07/24 05:14:01;;;;;;;13.90;11.83;;;;;;;;;;4935193;29;20457;-76
2021/07/24 05:16:28;;;;;;;11.33;9.97;;;;;;;;;;4928105;29;20467;-76
2021/07/24 05:18:56;;;;;;;12.43;10.20;;;;;;;;;;4936366;29;20992;-76
2021/07/24 05:21:24;;;;;;;14.07;10.80;;;;;;;;;;4926940;29;20845;-76
2021/07/24 05:23:51;;;;;;;10.93;9.60;;;;;;;;;;4917624;29;20448;-76
2021/07/24 05:26:19;;;;;;;12.97;10.53;;;;;;;;;;4926254;29;20459;-76
2021/07/24 05:28:48;;;;;;;14.00;11.67;;;;;;;;;;4914263;29;20481;-75
2021/07/24 05:31:16;;;;;;;11.37;10.03;;;;;;;;;;4934097;29;20553;-76
2021/07/24 05:33:43;;;;;;;12.63;10.60;;;;;;;;;;4932302;29;20493;-76
2021/07/24 05:36:10;;;;;;;11.63;10.00;;;;;;;;;;4930720;29;20458;-76
2021/07/24 05:38:39;;;;;;;11.50;10.30;;;;;;;;;;4929638;29;20490;-76
2021/07/24 05:41:06;;;;;;;11.30;10.10;;;;;;;;;;4914877;29;20490;-76
2021/07/24 05:43:33;;;;;;;10.80;9.80;;;;;;;;;;4922394;29;20485;-79
2021/07/24 05:46:01;;;;;;;10.77;9.73;;;;;;;;;;4914889;29;20451;-77
2021/07/24 05:48:29;;;;;;;12.33;9.73;;;;;;;;;;4919079;29;20479;-79
2021/07/24 05:50:56;;;;;;;10.63;9.53;;;;;;;;;;4921901;29;20457;-77
2021/07/24 05:53:23;;;;;;;11.37;9.37;;;;;;;;;;4930091;29;20964;-75
2021/07/24 05:55:52;;;;;;;10.53;9.43;;;;;;;;;;4930185;29;20589;-75
2021/07/24 05:58:19;;;;;;;9.67;8.67;;;;;;;;;;4931382;29;21050;-75
2021/07/24 06:00:46;;;;;;;11.20;9.00;;;;;;;;;;4925844;29;20487;-74
2021/07/24 06:03:14;;;;;;;9.80;8.80;;;;;;;;;;4932483;29;20454;-75
2021/07/24 06:05:41;;;;;;;10.50;8.90;;;;;;;;;;4915857;29;20497;-75
2021/07/24 06:08:09;;;;;;;9.57;8.57;;;;;;;;;;4925299;29;20486;-74
2021/07/24 06:10:36;;;;;;;9.17;8.27;;;;;;;;;;4931409;29;20435;-75
2021/07/24 06:13:04;;;;;;;9.70;8.57;;;;;;;;;;4927334;29;20455;-75
2021/07/24 06:15:31;;;;;;;9.93;8.73;;;;;;;;;;4913902;29;20450;-75
2021/07/24 06:17:59;;;;;;;11.07;9.33;;;;;;;;;;4914378;29;20653;-74
2021/07/24 06:20:26;;;;;;;9.77;8.87;;;;;;;;;;4916459;29;21016;-75
2021/07/24 06:22:53;;;;;;;10.43;9.27;;;;;;;;;;4944484;28;20471;-74
2021/07/24 06:25:20;;;;;;;11.67;9.43;;;;;;;;;;4926166;29;20481;-75
2021/07/24 06:27:47;;;;;;;14.33;9.70;;;;;;;;;;4928467;29;20466;-74
2021/07/24 06:30:16;;;;;;;10.47;9.30;;;;;;;;;;4916330;29;20459;-75
2021/07/24 06:32:43;;;;;;;11.07;9.43;;;;;;;;;;4918071;29;20455;-74
2021/07/24 06:35:10;;;;;;;11.33;9.03;;;;;;;;;;4917292;29;20467;-74
2021/07/24 06:37:37;;;;;;;11.70;10.00;;;;;;;;;;4927478;29;20498;-75
2021/07/24 06:40:05;;;;;;;10.90;9.17;;;;;;;;;;4929132;29;20478;-75
2021/07/24 06:42:32;;;;;;;9.63;8.60;;;;;;;;;;4931768;29;20549;-77
2021/07/24 06:44:59;;;;;;;9.83;8.93;;;;;;;;;;4932929;29;20831;-77
2021/07/24 06:47:28;;;;;;;10.43;8.73;;;;;;;;;;4927387;29;20463;-77
2021/07/24 06:49:55;;;;;;;11.30;10.10;;;;;;;;;;4925034;29;20466;-76
2021/07/24 06:52:22;;;;;;;11.70;9.97;;;;;;;;;;4933453;29;20454;-77
2021/07/24 06:54:49;;;;;;;9.97;9.07;;;;;;;;;;4930479;29;20467;-76
2021/07/24 06:57:16;;;;;;;10.63;9.57;;;;;;;;;;4934958;29;20789;-77
2021/07/24 06:59:43;;;;;;;9.90;8.90;;;;;;;;;;4923867;29;20466;-76
2021/07/24 07:02:11;;;;;;;10.10;9.10;;;;;;;;;;4929197;29;20494;-76
2021/07/24 07:04:40;;;;;;;11.07;9.67;;;;;;;;;;4932534;29;20510;-76
2021/07/24 07:07:07;;;;;;;11.33;9.30;;;;;;;;;;4927877;29;20470;-77
2021/07/24 07:09:35;;;;;;;11.87;9.40;;;;;;;;;;4947312;28;20466;-77
2021/07/24 07:12:02;;;;;;;11.27;9.40;;;;;;;;;;4930229;29;20486;-77
2021/07/24 07:14:29;;;;;;;9.90;8.80;;;;;;;;;;4935791;29;20459;-76
2021/07/24 07:16:56;;;;;;;9.50;8.60;;;;;;;;;;4914972;29;20582;-76
2021/07/24 07:19:24;;;;;;;9.90;8.90;;;;;;;;;;4934957;29;20482;-76
2021/07/24 07:21:52;;;;;;;10.30;9.40;;;;;;;;;;4919359;29;20482;-77
2021/07/24 07:24:19;;;;;;;11.23;8.90;;;;;;;;;;4928595;29;20442;-79
2021/07/24 07:26:47;;;;;;;9.83;8.70;;;;;;;;;;4921133;29;20454;-77
2021/07/24 07:29:14;;;;;;;11.60;9.43;;;;;;;;;;4926773;29;20486;-78
2021/07/24 07:31:41;;;;;;;13.63;10.30;;;;;;;;;;4923144;29;20808;-77
2021/07/24 07:34:08;;;;;;;10.60;9.00;;;;;;;;;;4921036;29;20462;-77
2021/07/24 07:36:35;;;;;;;10.43;9.43;;;;;;;;;;4931318;29;20459;-77
2021/07/24 07:39:04;;;;;;;11.00;8.83;;;;;;;;;;4928578;29;20484;-78
2021/07/24 07:41:31;;;;;;;10.77;9.17;;;;;;;;;;4919450;29;20848;-78
2021/07/24 07:43:58;;;;;;;11.93;9.00;;;;;;;;;;4930868;29;20481;-79
2021/07/24 07:46:25;;;;;;;10.37;9.27;;;;;;;;;;4935238;29;20461;-76
2021/07/24 07:48:52;;;;;;;12.67;9.60;;;;;;;;;;4944000;28;20486;-77
2021/07/24 07:51:20;;;;;;;11.60;9.27;;;;;;;;;;4930308;29;20844;-76
2021/07/24 07:53:47;;;;;;;9.83;8.83;;;;;;;;;;4930918;29;20793;-76
2021/07/24 07:56:15;;;;;;;11.00;9.30;;;;;;;;;;4933804;28;20464;-76
2021/07/24 07:58:42;;;;;;;10.50;9.40;;;;;;;;;;4931750;29;20470;-76
2021/07/24 08:01:11;;;;;;;10.30;9.30;;;;;;;;;;4916885;29;20578;-76
2021/07/24 08:03:38;;;;;;;12.00;8.60;;;;;;;;;;4943342;29;20462;-75
2021/07/24 08:06:05;;;;;;;9.80;8.90;;;;;;;;;;4930383;29;20467;-76
2021/07/24 08:08:32;;;;;;;13.93;9.83;;;;;;;;;;4933608;29;20995;-76
2021/07/24 08:10:59;;;;;;;10.37;9.37;;;;;;;;;;4932256;29;20473;-76
2021/07/24 08:13:28;;;;;;;11.23;9.30;;;;;;;;;;4936146;29;20454;-77
2021/07/24 08:15:55;;;;;;;11.17;9.13;;;;;;;;;;4937663;29;20952;-76
2021/07/24 08:18:22;;;;;;;11.80;9.70;;;;;;;;;;4933053;29;20486;-76
2021/07/24 08:20:49;;;;;;;10.57;9.57;;;;;;;;;;4933371;29;20490;-75
2021/07/24 08:23:17;;;;;;;12.03;9.30;;;;;;;;;;4927353;29;20468;-76
2021/07/24 08:25:45;;;;;;;11.77;10.57;;;;;;;;;;4920156;29;20805;-76
2021/07/24 08:28:12;;;;;;;11.33;10.20;;;;;;;;;;4924210;29;20497;-77
2021/07/24 08:30:40;;;;;;;11.00;9.90;;;;;;;;;;4929944;29;20474;-76
2021/07/24 08:33:08;;;;;;;10.97;9.97;;;;;;;;;;4929226;29;20467;-77
2021/07/24 08:35:35;;;;;;;13.20;9.87;;;;;;;;;;4935270;29;20438;-77
2021/07/24 08:38:02;;;;;;;11.87;10.23;;;;;;;;;;4922369;29;20467;-76
2021/07/24 08:40:29;;;;;;;11.03;9.93;;;;;;;;;;4920144;29;20478;-77
2021/07/24 08:42:57;;;;;;;11.70;10.50;;;;;;;;;;4928874;29;20474;-76
2021/07/24 08:45:24;;;;;;;14.53;10.97;;;;;;;;;;4925441;29;20817;-76
2021/07/24 08:47:53;;;;;;;13.53;10.07;;;;;;;;;;4928660;29;21039;-76
2021/07/24 08:50:20;;;;;;;11.07;9.97;;;;;;;;;;4916811;29;20459;-75
2021/07/24 08:52:51;;;;;;;12.60;10.90;;;;;;;;;;4913089;29;20451;-75
2021/07/24 08:55:18;;;;;;;11.93;10.70;;;;;;;;;;4912178;29;20444;-75
2021/07/24 08:57:45;;;;;;;11.60;10.40;;;;;;;;;;4912000;29;20482;-76
2021/07/24 09:00:14;;;;;;;11.30;10.03;;;;;;;;;;4928124;29;20493;-75
2021/07/24 09:02:42;;;;;;;13.20;10.57;;;;;;;;;;4915606;29;20499;-75
2021/07/24 09:05:12;;;;;;;11.97;10.63;;;;;;;;;;4955967;28;20446;-75
2021/07/24 09:07:41;;;;;;;15.60;11.80;;;;;;;;;;4912613;29;20852;-76
2021/07/24 09:10:09;;;;;;;10.53;9.53;;;;;;;;;;4931296;29;20438;-76
2021/07/24 09:12:36;;;;;;;12.70;10.50;;;;;;;;;;4931341;29;20474;-76
2021/07/24 09:15:04;;;;;;;12.70;10.93;;;;;;;;;;4906631;29;20944;-77
2021/07/24 09:17:31;;;;;;;10.83;9.73;;;;;;;;;;4915186;29;20821;-77
2021/07/24 09:19:59;;;;;;;13.73;10.80;;;;;;;;;;4916359;29;20447;-77
2021/07/24 09:22:28;;;;;;;12.20;10.93;;;;;;;;;;4920138;29;20484;-76
2021/07/24 09:25:05;;;;;;;11.90;10.57;;;;;;;;;;4913744;29;20450;-77
2021/07/24 09:27:32;;;;;;;14.07;11.40;;;;;;;;;;4934734;29;20458;-77
2021/07/24 09:30:01;;;;;;;12.33;10.93;;;;;;;;;;4934721;29;20435;-76
2021/07/24 09:32:28;;;;;;;12.30;10.60;;;;;;;;;;4929336;29;20558;-78
2021/07/24 09:34:55;;;;;;;13.13;10.77;;;;;;;;;;4932963;29;20458;-77
2021/07/24 09:37:26;;;;;;;13.30;11.03;;;;;;;;;;4929222;29;20447;-77
2021/07/24 09:39:55;;;;;;;16.40;12.13;;;;;;;;;;4932321;29;20486;-76
2021/07/24 09:42:22;;;;;;;15.70;11.73;;;;;;;;;;4932592;29;20482;-79
2021/07/24 09:45:05;;;;;;;12.87;11.47;;;;;;;;;;4926680;29;20473;-77
2021/07/24 09:47:32;;;;;;;11.57;9.40;;;;;;;;;;4931750;29;20493;-78
2021/07/24 09:50:14;;;;;;;14.53;10.93;;;;;;;;;;4926828;29;20471;-78
2021/07/24 09:52:46;;;;;;;12.30;11.03;;;;;;;;;;4902947;29;20879;-76
2021/07/24 09:55:22;;;;;;;14.30;11.40;;;;;;;;;;4918832;29;20526;-76
2021/07/24 09:57:50;;;;;;;14.17;11.83;;;;;;;;;;4918079;28;20486;-75
2021/07/24 10:00:25;;;;;;;14.67;11.03;;;;;;;;;;4932543;29;20446;-77
2021/07/24 10:03:01;;;;;;;16.10;11.77;;;;;;;;;;4922413;29;20501;-75
2021/07/24 10:05:34;;;;;;;13.17;11.20;;;;;;;;;;4900073;29;20474;-75
2021/07/24 10:08:03;;;;;;;13.27;11.70;;;;;;;;;;4915106;29;20470;-77
2021/07/24 10:10:32;;;;;;;12.43;11.20;;;;;;;;;;4924303;29;20459;-75
2021/07/24 10:12:59;;;;;;;14.93;12.07;;;;;;;;;;4918924;28;20473;-75
2021/07/24 10:15:27;;;;;;;12.77;11.20;;;;;;;;;;4922516;29;20458;-75
2021/07/24 10:17:54;;;;;;;12.03;10.83;;;;;;;;;;4929673;29;20837;-77
2021/07/24 10:20:21;;;;;;;15.20;11.30;;;;;;;;;;4918382;29;20455;-75
2021/07/24 10:22:48;;;;;;;13.07;11.77;;;;;;;;;;4911434;29;21020;-77
2021/07/24 10:25:20;;;;;;;16.00;11.97;;;;;;;;;;4914105;29;20443;-76
2021/07/24 10:27:49;;;;;;;13.73;11.50;;;;;;;;;;4906170;29;20997;-75
2021/07/24 10:30:17;;;;;;;13.13;11.70;;;;;;;;;;4928318;29;20442;-75
2021/07/24 10:32:45;;;;;;;13.60;11.87;;;;;;;;;;4913124;29;20439;-75
2021/07/24 10:35:12;;;;;;;13.97;12.30;;;;;;;;;;4913607;29;20459;-75
2021/07/24 10:37:42;;;;;;;16.47;12.33;;;;;;;;;;4919445;29;20462;-75
2021/07/24 10:40:25;;;;;;;13.47;11.97;;;;;;;;;;4919374;29;20490;-74
2021/07/24 10:42:53;;;;;;;16.23;11.77;;;;;;;;;;4928636;29;20580;-75
2021/07/24 10:45:37;;;;;;;14.03;11.70;;;;;;;;;;4927988;29;20462;-75
2021/07/24 10:48:20;;;;;;;14.33;11.83;;;;;;;;;;4930860;29;20819;-75
2021/07/24 10:51:02;;;;;;;14.77;13.13;;;;;;;;;;4910814;29;20461;-74
2021/07/24 10:53:30;;;;;;;14.57;11.73;;;;;;;;;;4914913;29;20545;-74
2021/07/24 10:55:58;;;;;;;16.50;12.77;;;;;;;;;;4931070;29;20458;-74
2021/07/24 10:58:29;;;;;;;14.10;12.53;;;;;;;;;;4933607;28;21087;-75
2021/07/24 11:00:57;;;;;;;15.93;12.53;;;;;;;;;;4904187;29;20491;-75
2021/07/24 11:03:31;;;;;;;15.60;14.00;;;;;;;;;;4917585;29;20571;-75
2021/07/24 11:05:59;;;;;;;20.00;14.30;;;;;;;;;;4918404;29;20510;-74
2021/07/24 11:08:41;;;;;;;17.60;13.73;;;;;;;;;;4927217;29;20984;-75
2021/07/24 11:11:09;;;;;;;18.63;14.90;;;;;;;;;;4901290;29;20448;-75
2021/07/24 11:13:49;;;;;;;15.90;13.03;;;;;;;;;;4916603;29;20464;-75
2021/07/24 11:16:16;;;;;;;17.13;13.60;;;;;;;;;;4920710;29;20812;-74
2021/07/24 11:18:44;;;;;;;14.83;13.43;;;;;;;;;;4921364;29;20479;-76
2021/07/24 11:21:11;;;;;;;15.73;12.80;;;;;;;;;;4923064;29;20454;-75
2021/07/24 11:24:03;;;;;;;14.97;13.37;;;;;;;;;;4931791;29;20494;-75
2021/07/24 11:26:31;;;;;;;14.67;13.17;;;;;;;;;;4910881;29;20473;-75
2021/07/24 11:28:59;;;;;;;15.10;13.10;;;;;;;;;;4930082;29;20482;-76
2021/07/24 11:31:26;;;;;;;19.17;14.10;;;;;;;;;;4934447;29;20443;-76
2021/07/24 11:33:54;;;;;;;17.47;14.43;;;;;;;;;;4933600;29;20454;-75
2021/07/24 11:36:21;;;;;;;17.50;15.60;;;;;;;;;;4923962;29;20463;-74
2021/07/24 11:38:48;;;;;;;20.37;16.10;;;;;;;;;;4916919;29;20477;-74
2021/07/24 11:41:15;;;;;;;21.97;18.83;;;;;;;;;;4928797;29;20845;-78
2021/07/24 11:43:43;;;;;;;20.90;15.50;;;;;;;;;;4936605;29;20843;-81
2021/07/24 11:46:12;;;;;;;19.93;16.30;;;;;;;;;;4922961;29;20971;-80
2021/07/24 11:48:42;;;;;;;20.20;17.03;;;;;;;;;;4920648;29;20490;-79
2021/07/24 11:51:10;;;;;;;19.93;15.80;;;;;;;;;;4933066;29;21178;-82
2021/07/24 11:53:37;;;;;;;23.13;17.70;;;;;;;;;;4927698;29;20463;-81
2021/07/24 11:56:09;;;;;;;21.90;17.90;;;;;;;;;;4906429;29;20481;-79
2021/07/24 11:58:36;;;;;;;22.50;18.40;;;;;;;;;;4919042;29;20480;-79
2021/07/24 12:01:19;;;;;;;20.90;18.17;;;;;;;;;;4932325;29;20462;-80
2021/07/24 12:03:48;;;;;;;22.53;18.00;;;;;;;;;;4915046;29;20494;-75
2021/07/24 12:06:15;;;;;;;22.80;19.30;;;;;;;;;;4930146;29;20458;-74
2021/07/24 12:08:43;;;;;;;23.70;18.83;;;;;;;;;;4928372;29;20463;-75
2021/07/24 12:11:13;;;;;;;20.90;18.13;;;;;;;;;;4913679;29;20542;-74
2021/07/24 12:13:41;;;;;;;21.53;18.90;;;;;;;;;;4913278;29;20873;-75
2021/07/24 12:16:08;;;;;;;22.13;18.20;;;;;;;;;;4913817;29;20443;-74
2021/07/24 12:18:38;;;;;;;23.83;20.27;;;;;;;;;;4907103;29;20484;-75
2021/07/24 12:21:08;;;;;;;24.20;20.23;;;;;;;;;;4908193;29;20451;-74
2021/07/24 12:23:35;;;;;;;26.10;20.90;;;;;;;;;;4911948;29;20832;-74
2021/07/24 12:26:18;;;;;;;25.33;21.10;;;;;;;;;;4914943;29;20475;-73
2021/07/24 12:28:45;;;;;;;25.40;20.50;;;;;;;;;;4898189;29;20550;-74
2021/07/24 12:31:28;;;;;;;25.20;20.40;;;;;;;;;;4927616;29;20462;-74
2021/07/24 12:33:56;;;;;;;22.17;19.30;;;;;;;;;;4910898;29;20470;-75
2021/07/24 12:36:26;;;;;;;24.17;18.70;;;;;;;;;;4914657;29;20482;-75
2021/07/24 12:38:53;;;;;;;25.50;19.53;;;;;;;;;;4916429;29;20553;-75
2021/07/24 12:41:35;;;;;;;27.43;20.63;;;;;;;;;;4927817;29;20465;-76
2021/07/24 12:44:03;;;;;;;26.20;20.73;;;;;;;;;;4913391;29;20502;-77
2021/07/24 12:46:31;;;;;;;23.77;21.20;;;;;;;;;;4930536;29;20439;-76
2021/07/24 12:48:58;;;;;;;23.30;19.67;;;;;;;;;;4943144;28;20482;-76
2021/07/24 12:51:34;;;;;;;25.37;19.40;;;;;;;;;;4927038;29;20573;-76
2021/07/24 12:54:09;;;;;;;24.23;20.07;;;;;;;;;;4918259;29;20473;-76
2021/07/24 12:56:37;;;;;;;24.90;19.27;;;;;;;;;;4926366;29;20465;-75
2021/07/24 12:59:04;;;;;;;19.93;17.83;;;;;;;;;;4928396;28;20470;-77
2021/07/24 13:01:31;;;;;;;21.03;18.67;;;;;;;;;;4915691;29;20455;-76
2021/07/24 13:03:59;;;;;;;19.10;16.43;;;;;;;;;;4935488;29;21018;-76
2021/07/24 13:06:29;;;;;;;20.47;17.70;;;;;;;;;;4913121;29;20461;-76
2021/07/24 13:08:58;;;;;;;21.70;17.70;;;;;;;;;;4930506;29;20478;-75
2021/07/24 13:11:25;;;;;;;24.37;18.40;;;;;;;;;;4934674;29;20505;-75
2021/07/24 13:13:52;;;;;;;22.53;17.77;;;;;;;;;;4934526;29;20447;-75
2021/07/24 13:16:20;;;;;;;25.80;18.07;;;;;;;;;;4921379;29;20471;-74
2021/07/24 13:18:48;;;;;;;22.60;16.73;;;;;;;;;;4932075;29;21063;-76
2021/07/24 13:21:15;;;;;;;18.07;16.03;;;;;;;;;;4918706;29;20971;-76
2021/07/24 13:23:45;;;;;;;25.47;17.30;;;;;;;;;;4936584;29;20844;-76
2021/07/24 13:28:54;;;;;;;21.33;16.83;;;;;;;;;;4930052;29;21498;-76
2021/07/24 13:31:21;;;;;;;19.13;17.10;;;;;;;;;;4933550;29;20971;-75
2021/07/24 13:33:48;;;;;;;21.57;17.97;;;;;;;;;;4918301;29;21009;-76
2021/07/24 13:36:15;;;;;;;20.10;16.40;;;;;;;;;;4931599;29;20447;-75
2021/07/24 13:38:44;;;;;;;19.40;16.93;;;;;;;;;;4932160;29;20482;-75
2021/07/24 13:41:11;;;;;;;21.63;18.40;;;;;;;;;;4931716;29;20493;-75
2021/07/24 13:43:38;;;;;;;19.17;17.20;;;;;;;;;;4932182;29;20529;-75
2021/07/24 13:46:06;;;;;;;21.50;18.50;;;;;;;;;;4920843;29;20465;-75
2021/07/24 13:48:34;;;;;;;22.10;19.80;;;;;;;;;;4929259;29;20466;-75
2021/07/24 13:51:01;;;;;;;20.70;18.47;;;;;;;;;;4930105;29;20541;-75
2021/07/24 13:53:28;;;;;;;26.77;20.90;;;;;;;;;;4932295;29;20446;-76
2021/07/24 13:55:57;;;;;;;24.57;21.47;;;;;;;;;;4930564;29;20465;-74
2021/07/24 13:58:24;;;;;;;25.40;21.73;;;;;;;;;;4932897;29;20940;-76
2021/07/24 14:00:51;;;;;;;23.93;21.37;;;;;;;;;;4933245;29;20461;-75
2021/07/24 14:03:18;;;;;;;27.37;22.10;;;;;;;;;;4927598;29;20548;-75
2021/07/24 14:05:45;;;;;;;26.13;23.23;;;;;;;;;;4930683;29;20933;-79
2021/07/24 14:08:12;;;;;;;27.80;21.63;;;;;;;;;;4931834;29;20856;-77
2021/07/24 14:10:40;;;;;;;25.80;20.23;;;;;;;;;;4928748;29;20963;-78
2021/07/24 14:13:09;;;;;;;27.70;20.90;;;;;;;;;;4933596;29;20438;-78
2021/07/24 14:15:36;;;;;;;26.93;21.97;;;;;;;;;;4931824;29;20723;-79
2021/07/24 14:18:03;;;;;;;23.20;20.40;;;;;;;;;;4927341;29;20556;-81
2021/07/24 14:20:31;;;;;;;23.13;19.63;;;;;;;;;;4928914;29;20811;-79
2021/07/24 14:22:58;;;;;;;22.47;19.50;;;;;;;;;;4932530;29;20577;-80
2021/07/24 14:25:25;;;;;;;25.67;20.73;;;;;;;;;;4924445;29;20559;-81
2021/07/24 14:27:52;;;;;;;22.43;19.87;;;;;;;;;;4914298;29;20486;-79
2021/07/24 14:30:21;;;;;;;22.83;19.43;;;;;;;;;;4919058;28;20816;-80
2021/07/24 14:32:48;;;;;;;24.50;19.47;;;;;;;;;;4924959;29;20816;-79
2021/07/24 14:35:16;;;;;;;22.33;19.80;;;;;;;;;;4931469;29;21012;-80